createdAt,value
2018-06-09T00:01:56.234Z,98179.78
2018-06-09T00:04:24.615Z,98179.83
2018-06-09T00:06:53.094Z,98177.85
2018-06-09T00:09:21.555Z,98175.19
2018-06-09T00:11:50.161Z,98174.53
2018-06-09T00:14:18.551Z,98170.20
2018-06-09T00:16:47.009Z,98168.84
2018-06-09T00:19:15.376Z,98164.86
2018-06-09T00:21:43.866Z,98168.00
2018-06-09T00:24:12.230Z,98157.20
2018-06-09T00:26:40.634Z,98151.06
2018-06-09T00:29:08.993Z,98154.61
2018-06-09T00:31:37.398Z,98155.00
2018-06-09T00:34:05.853Z,98158.17
2018-06-09T00:36:34.381Z,98159.05
2018-06-09T00:39:02.848Z,98156.34
2018-06-09T00:41:31.298Z,98165.09
2018-06-09T00:43:59.749Z,98162.97
2018-06-09T00:46:28.187Z,98163.83
2018-06-09T00:48:56.786Z,98169.17
2018-06-09T00:51:25.329Z,98170.30
2018-06-09T00:53:53.740Z,98170.77
2018-06-09T00:56:33.441Z,98179.14
2018-06-09T00:59:01.878Z,98179.68
2018-06-09T01:01:30.333Z,98181.84
2018-06-09T01:03:59.008Z,98182.14
2018-06-09T01:06:27.522Z,98178.88
2018-06-09T01:08:56.028Z,98178.91
2018-06-09T01:11:24.543Z,98180.34
2018-06-09T01:13:53.002Z,98186.77
2018-06-09T01:16:21.883Z,98188.86
2018-06-09T01:18:51.893Z,98196.02
2018-06-09T01:21:20.414Z,98195.34
2018-06-09T01:23:53.019Z,98196.23
2018-06-09T01:26:21.567Z,98195.57
2018-06-09T01:28:50.086Z,98192.72
2018-06-09T01:31:18.654Z,98185.79
2018-06-09T01:33:47.131Z,98193.25
2018-06-09T01:36:15.618Z,98186.84
2018-06-09T01:38:44.281Z,98191.06
2018-06-09T01:41:12.679Z,98193.41
2018-06-09T01:43:41.070Z,98199.83
2018-06-09T01:46:09.428Z,98201.05
2018-06-09T01:48:37.842Z,98196.97
2018-06-09T01:51:06.359Z,98190.62
2018-06-09T01:53:34.874Z,98193.77
2018-06-09T01:56:03.262Z,98191.34
2018-06-09T01:58:31.655Z,98192.33
2018-06-09T02:01:00.082Z,98192.13
2018-06-09T02:03:28.777Z,98195.17
2018-06-09T02:05:57.321Z,98195.03
2018-06-09T02:08:25.781Z,98190.48
2018-06-09T02:10:57.806Z,98198.45
2018-06-09T02:13:26.695Z,98197.19
2018-06-09T02:15:55.226Z,98196.75
2018-06-09T02:18:23.642Z,98200.34
2018-06-09T02:20:52.082Z,98194.95
2018-06-09T02:23:20.478Z,98198.30
2018-06-09T02:25:48.951Z,98193.28
2018-06-09T02:28:18.961Z,98193.36
2018-06-09T02:30:47.675Z,98193.38
2018-06-09T02:33:16.163Z,98196.83
2018-06-09T02:35:44.771Z,98200.53
2018-06-09T02:38:13.210Z,98203.91
2018-06-09T02:40:41.714Z,98197.52
2018-06-09T02:43:10.199Z,98199.23
2018-06-09T02:45:38.689Z,98198.72
2018-06-09T02:48:07.209Z,98205.98
2018-06-09T02:50:35.622Z,98201.58
2018-06-09T02:53:04.098Z,98205.97
2018-06-09T02:55:32.619Z,98207.34
2018-06-09T02:58:01.438Z,98205.27
2018-06-09T03:00:29.946Z,98204.05
2018-06-09T03:02:58.513Z,98205.33
2018-06-09T03:05:27.020Z,98209.46
2018-06-09T03:07:55.478Z,98212.84
2018-06-09T03:10:24.077Z,98213.64
2018-06-09T03:12:52.575Z,98218.83
2018-06-09T03:15:21.071Z,98214.92
2018-06-09T03:17:49.574Z,98219.33
2018-06-09T03:20:18.016Z,98214.98
2018-06-09T03:22:46.529Z,98216.97
2018-06-09T03:25:14.967Z,98219.10
2018-06-09T03:27:43.422Z,98215.19
2018-06-09T03:30:11.825Z,98216.54
2018-06-09T03:32:40.227Z,98219.25
2018-06-09T03:35:08.858Z,98209.77
2018-06-09T03:37:37.375Z,98209.57
2018-06-09T03:40:05.862Z,98211.23
2018-06-09T03:42:34.383Z,98217.98
2018-06-09T03:45:02.883Z,98216.42
2018-06-09T03:47:31.402Z,98216.39
2018-06-09T03:49:59.942Z,98221.60
2018-06-09T03:52:28.340Z,98211.05
2018-06-09T03:54:56.714Z,98217.54
2018-06-09T03:57:25.162Z,98219.76
2018-06-09T03:59:53.782Z,98221.28
2018-06-09T04:02:22.366Z,98212.27
2018-06-09T04:04:50.737Z,98224.80
2018-06-09T04:07:19.441Z,98224.42
2018-06-09T04:09:47.841Z,98225.16
2018-06-09T04:12:16.506Z,98222.27
2018-06-09T04:14:45.087Z,98227.25
2018-06-09T04:17:13.516Z,98221.79
2018-06-09T04:19:41.962Z,98231.69
2018-06-09T04:22:10.358Z,98234.77
2018-06-09T04:24:38.849Z,98236.30
2018-06-09T04:27:07.298Z,98239.47
2018-06-09T04:29:35.664Z,98246.92
2018-06-09T04:32:04.248Z,98242.41
2018-06-09T04:34:32.697Z,98240.41
2018-06-09T04:37:01.365Z,98241.37
2018-06-09T04:39:29.801Z,98242.86
2018-06-09T04:41:58.181Z,98248.28
2018-06-09T04:44:26.566Z,98249.24
2018-06-09T04:46:54.962Z,98254.54
2018-06-09T04:49:23.529Z,98250.99
2018-06-09T04:51:51.890Z,98254.05
2018-06-09T04:54:20.286Z,98255.66
2018-06-09T04:56:48.683Z,98257.91
2018-06-09T04:59:17.183Z,98256.41
2018-06-09T05:01:45.661Z,98249.17
2018-06-09T05:04:14.106Z,98246.73
2018-06-09T05:06:42.494Z,98241.94
2018-06-09T05:09:10.910Z,98245.01
2018-06-09T05:11:43.516Z,98248.95
2018-06-09T05:14:12.113Z,98247.84
2018-06-09T05:16:40.521Z,98241.83
2018-06-09T05:19:09.179Z,98242.08
2018-06-09T05:21:37.562Z,98241.15
2018-06-09T05:24:06.203Z,98237.57
2018-06-09T05:26:34.632Z,98242.63
2018-06-09T05:29:03.030Z,98241.98
2018-06-09T05:31:31.557Z,98237.53
2018-06-09T05:34:00.084Z,98240.37
2018-06-09T05:36:28.502Z,98242.69
2018-06-09T05:38:56.957Z,98248.99
2018-06-09T05:41:25.358Z,98247.91
2018-06-09T05:43:53.817Z,98249.88
2018-06-09T05:46:22.305Z,98248.94
2018-06-09T05:48:50.781Z,98250.89
2018-06-09T05:51:19.133Z,98255.50
2018-06-09T05:53:48.248Z,98262.47
2018-06-09T05:56:16.702Z,98256.88
2018-06-09T05:58:48.841Z,98253.34
2018-06-09T06:01:17.320Z,98258.76
2018-06-09T06:03:46.018Z,98260.12
2018-06-09T06:06:14.825Z,98263.83
2018-06-09T06:08:43.257Z,98261.14
2018-06-09T06:11:11.976Z,98264.20
2018-06-09T06:13:40.569Z,98268.05
2018-06-09T06:16:10.305Z,98267.92
2018-06-09T06:18:39.673Z,98263.10
2018-06-09T06:21:08.181Z,98269.88
2018-06-09T06:23:36.594Z,98264.47
2018-06-09T06:26:05.068Z,98263.41
2018-06-09T06:28:33.551Z,98267.87
2018-06-09T06:31:02.097Z,98265.06
2018-06-09T06:33:30.561Z,98262.61
2018-06-09T06:36:03.074Z,98265.63
2018-06-09T06:38:31.699Z,98276.25
2018-06-09T06:41:00.455Z,98274.83
2018-06-09T06:43:33.898Z,98272.94
2018-06-09T06:46:10.405Z,98268.06
2018-06-09T06:48:41.919Z,98266.56
2018-06-09T06:51:19.579Z,98270.19
2018-06-09T06:53:48.374Z,98275.11
2018-06-09T06:56:16.997Z,98268.30
2018-06-09T06:58:45.549Z,98275.10
2018-06-09T07:01:14.010Z,98274.77
2018-06-09T07:03:43.187Z,98282.08
2018-06-09T07:06:12.009Z,98277.66
2018-06-09T07:08:40.627Z,98268.58
2018-06-09T07:11:09.435Z,98270.69
2018-06-09T07:13:38.446Z,98268.91
2018-06-09T07:16:07.210Z,98270.15
2018-06-09T07:18:35.562Z,98273.11
2018-06-09T07:21:04.011Z,98271.20
2018-06-09T07:23:32.498Z,98282.64
2018-06-09T07:26:01.392Z,98276.06
2018-06-09T07:28:30.640Z,98271.64
2018-06-09T07:31:00.314Z,98270.14
2018-06-09T07:33:29.179Z,98271.64
2018-06-09T07:35:58.035Z,98269.98
2018-06-09T07:38:27.302Z,98271.14
2018-06-09T07:40:56.790Z,98272.63
2018-06-09T07:43:25.507Z,98269.27
2018-06-09T07:45:54.178Z,98261.91
2018-06-09T07:48:22.681Z,98267.38
2018-06-09T07:50:51.170Z,98262.66
2018-06-09T07:53:19.694Z,98259.04
2018-06-09T07:55:48.146Z,98253.33
2018-06-09T07:58:17.262Z,98256.60
2018-06-09T08:00:46.108Z,98258.21
2018-06-09T08:03:14.611Z,98263.61
2018-06-09T08:11:53.293Z,98256.07
2018-06-09T08:17:48.307Z,98247.33
2018-06-09T08:20:24.762Z,98247.43
2018-06-09T08:23:00.042Z,98240.22
2018-06-09T08:25:33.490Z,98244.78
2018-06-09T08:28:16.246Z,98238.05
2018-06-09T08:30:45.223Z,98238.75
2018-06-09T08:33:13.703Z,98237.03
2018-06-09T08:35:45.796Z,98231.33
2018-06-09T08:38:17.524Z,98235.27
2018-06-09T08:40:46.155Z,98232.48
2018-06-09T08:43:14.586Z,98232.08
2018-06-09T08:45:43.115Z,98230.81
2018-06-09T08:48:11.552Z,98230.02
2018-06-09T08:50:40.288Z,98227.00
2018-06-09T08:53:08.779Z,98232.16
2018-06-09T08:55:37.255Z,98233.17
2018-06-09T08:58:05.836Z,98229.48
2018-06-09T09:00:34.250Z,98240.27
2018-06-09T09:03:02.851Z,98232.25
2018-06-09T09:05:31.287Z,98235.97
2018-06-09T09:07:59.725Z,98233.09
2018-06-09T09:10:28.177Z,98236.38
2018-06-09T09:12:56.825Z,98234.95
2018-06-09T09:15:25.249Z,98233.37
2018-06-09T09:17:53.718Z,98239.00
2018-06-09T09:20:22.241Z,98236.81
2018-06-09T09:22:50.946Z,98238.38
2018-06-09T09:25:19.382Z,98227.97
2018-06-09T09:27:47.942Z,98222.48
2018-06-09T09:30:16.407Z,98224.53
2018-06-09T09:32:44.814Z,98228.95
2018-06-09T09:35:13.327Z,98227.52
2018-06-09T09:37:41.773Z,98226.20
2018-06-09T09:40:10.402Z,98225.81
2018-06-09T09:42:38.826Z,98232.72
2018-06-09T09:45:07.287Z,98224.72
2018-06-09T09:47:35.736Z,98217.20
2018-06-09T09:50:04.291Z,98219.28
2018-06-09T09:52:32.775Z,98221.16
2018-06-09T09:55:01.478Z,98222.64
2018-06-09T09:57:29.898Z,98222.87
2018-06-09T09:59:58.351Z,98221.56
2018-06-09T10:02:30.751Z,98213.36
2018-06-09T10:04:59.263Z,98211.48
2018-06-09T10:07:27.879Z,98218.34
2018-06-09T10:09:56.357Z,98215.48
2018-06-09T10:12:24.972Z,98216.44
2018-06-09T10:14:53.413Z,98208.45
2018-06-09T10:17:21.914Z,98216.16
2018-06-09T10:19:50.370Z,98214.53
2018-06-09T10:22:18.877Z,98212.42
2018-06-09T10:24:47.499Z,98216.34
2018-06-09T10:27:15.981Z,98213.29
2018-06-09T10:29:44.582Z,98214.89
2018-06-09T10:32:15.860Z,98221.36
2018-06-09T10:34:47.690Z,98214.30
2018-06-09T10:37:22.486Z,98210.13
2018-06-09T10:43:23.454Z,98207.94
2018-06-09T10:45:51.885Z,98208.14
2018-06-09T10:48:20.411Z,98202.59
2018-06-09T10:50:48.942Z,98204.06
2018-06-09T10:53:17.379Z,98200.92
2018-06-09T10:55:46.091Z,98206.86
2018-06-09T10:58:14.578Z,98199.31
2018-06-09T11:00:43.140Z,98199.86
2018-06-09T11:03:11.735Z,98190.27
2018-06-09T11:05:40.246Z,98188.45
2018-06-09T11:08:08.745Z,98192.56
2018-06-09T11:10:37.255Z,98179.95
2018-06-09T11:13:05.922Z,98184.05
2018-06-09T11:15:34.407Z,98183.95
2018-06-09T11:18:02.852Z,98173.58
2018-06-09T11:20:31.584Z,98169.22
2018-06-09T11:23:00.426Z,98170.26
2018-06-09T11:25:28.959Z,98163.80
2018-06-09T11:27:57.415Z,98160.91
2018-06-09T11:30:25.971Z,98158.39
2018-06-09T11:32:54.474Z,98153.25
2018-06-09T11:35:23.015Z,98155.84
2018-06-09T11:37:51.418Z,98156.94
2018-06-09T11:40:20.231Z,98158.45
2018-06-09T11:42:48.690Z,98160.77
2018-06-09T11:45:17.212Z,98162.58
2018-06-09T11:47:45.691Z,98163.26
2018-06-09T11:50:14.154Z,98157.29
2018-06-09T11:52:42.606Z,98153.62
2018-06-09T11:55:11.050Z,98154.31
2018-06-09T11:57:39.461Z,98155.86
2018-06-09T12:00:08.146Z,98151.38
2018-06-09T12:02:36.903Z,98138.47
2018-06-09T12:05:05.366Z,98139.83
2018-06-09T12:07:33.821Z,98132.75
2018-06-09T12:10:02.358Z,98123.60
2018-06-09T12:12:30.802Z,98124.77
2018-06-09T12:14:59.251Z,98128.58
2018-06-09T12:17:27.737Z,98124.70
2018-06-09T12:19:56.193Z,98127.59
2018-06-09T12:22:24.752Z,98124.84
2018-06-09T12:24:53.222Z,98124.77
2018-06-09T12:27:21.735Z,98120.91
2018-06-09T12:29:50.114Z,98120.95
2018-06-09T12:32:18.538Z,98126.97
2018-06-09T12:34:47.042Z,98116.38
2018-06-09T12:37:15.512Z,98111.51
2018-06-09T12:39:44.009Z,98103.85
2018-06-09T12:42:15.298Z,98103.97
2018-06-09T12:44:43.694Z,98103.69
2018-06-09T12:47:12.120Z,98105.47
2018-06-09T12:49:40.626Z,98107.30
2018-06-09T12:52:09.114Z,98087.27
2018-06-09T12:54:37.527Z,98090.42
2018-06-09T12:57:06.090Z,98087.37
2018-06-09T12:59:34.777Z,98084.81
2018-06-09T13:02:03.222Z,98088.19
2018-06-09T13:04:31.660Z,98069.52
2018-06-09T13:07:00.287Z,98069.27
2018-06-09T13:09:28.734Z,98068.78
2018-06-09T13:11:57.204Z,98073.80
2018-06-09T13:14:25.901Z,98077.31
2018-06-09T13:16:54.378Z,98071.84
2018-06-09T13:19:23.258Z,98070.36
2018-06-09T13:21:51.769Z,98074.52
2018-06-09T13:24:20.208Z,98072.56
2018-06-09T13:26:48.794Z,98072.10
2018-06-09T13:29:17.322Z,98072.86
2018-06-09T13:31:46.049Z,98069.67
2018-06-09T13:34:14.489Z,98064.53
2018-06-09T13:36:42.921Z,98062.59
2018-06-09T13:39:11.422Z,98061.81
2018-06-09T13:41:40.166Z,98065.78
2018-06-09T13:44:08.571Z,98076.59
2018-06-09T13:46:37.037Z,98073.07
2018-06-09T13:49:05.652Z,98076.25
2018-06-09T13:51:34.121Z,98073.31
2018-06-09T13:54:02.638Z,98069.50
2018-06-09T13:56:31.091Z,98076.80
2018-06-09T13:58:59.638Z,98078.55
2018-06-09T14:01:28.051Z,98075.46
2018-06-09T14:03:56.541Z,98069.09
2018-06-09T14:06:25.047Z,98071.13
2018-06-09T14:08:53.480Z,98065.55
2018-06-09T14:11:21.926Z,98061.89
2018-06-09T14:13:50.768Z,98068.28
2018-06-09T14:16:19.233Z,98063.63
2018-06-09T14:18:47.812Z,98070.48
2018-06-09T14:21:16.254Z,98065.58
2018-06-09T14:23:44.814Z,98055.28
2018-06-09T14:26:13.298Z,98058.94
2018-06-09T14:28:41.781Z,98056.67
2018-06-09T14:31:10.318Z,98059.05
2018-06-09T14:33:38.818Z,98057.98
2018-06-09T14:36:07.254Z,98053.03
2018-06-09T14:38:35.762Z,98044.49
2018-06-09T14:41:04.282Z,98041.45
2018-06-09T14:43:32.774Z,98031.80
2018-06-09T14:46:01.269Z,98028.47
2018-06-09T14:48:29.766Z,98028.81
2018-06-09T14:50:58.366Z,98022.61
2018-06-09T14:53:26.819Z,98026.24
2018-06-09T14:55:55.382Z,98016.59
2018-06-09T14:58:23.944Z,98016.30
2018-06-09T15:00:52.383Z,98009.50
2018-06-09T15:03:21.054Z,98006.16
2018-06-09T15:05:49.575Z,98009.87
2018-06-09T15:08:17.967Z,98010.45
2018-06-09T15:10:46.565Z,98013.25
2018-06-09T15:13:15.249Z,98001.47
2018-06-09T15:15:43.777Z,98002.47
2018-06-09T15:18:12.161Z,98016.01
2018-06-09T15:20:40.630Z,98023.89
2018-06-09T15:23:09.208Z,98024.23
2018-06-09T15:25:37.800Z,98028.05
2018-06-09T15:28:06.311Z,98035.66
2018-06-09T15:30:34.842Z,98031.58
2018-06-09T15:33:04.322Z,98031.52
2018-06-09T15:35:32.878Z,98042.84
2018-06-09T15:38:01.412Z,98057.56
2018-06-09T15:40:29.899Z,98063.15
2018-06-09T15:42:58.452Z,98087.66
2018-06-09T15:45:27.390Z,98096.50
2018-06-09T15:47:55.913Z,98106.25
2018-06-09T15:50:24.474Z,98109.50
2018-06-09T15:52:52.921Z,98108.01
2018-06-09T15:55:21.407Z,98118.83
2018-06-09T15:57:49.926Z,98127.28
2018-06-09T16:00:19.422Z,98133.02
2018-06-09T16:02:48.015Z,98149.34
2018-06-09T16:05:16.539Z,98168.45
2018-06-09T16:07:45.070Z,98173.28
2018-06-09T16:10:13.517Z,98167.20
2018-06-09T16:12:41.951Z,98156.91
2018-06-09T16:15:10.989Z,98157.14
2018-06-09T16:17:39.429Z,98163.09
2018-06-09T16:20:08.003Z,98157.57
2018-06-09T16:22:36.381Z,98160.72
2018-06-09T16:25:05.169Z,98157.36
2018-06-09T16:27:34.401Z,98149.20
2018-06-09T16:30:02.889Z,98148.67
2018-06-09T16:32:31.441Z,98157.99
2018-06-09T16:34:59.982Z,98155.58
2018-06-09T16:37:28.608Z,98165.92
2018-06-09T16:39:56.998Z,98173.55
2018-06-09T16:42:25.424Z,98173.08
2018-06-09T16:44:53.842Z,98162.85
2018-06-09T16:47:22.493Z,98162.91
2018-06-09T16:49:51.021Z,98165.62
2018-06-09T16:52:19.450Z,98161.84
2018-06-09T16:54:47.925Z,98161.25
2018-06-09T16:57:16.571Z,98159.77
2018-06-09T16:59:45.027Z,98159.13
2018-06-09T17:02:13.471Z,98162.45
2018-06-09T17:04:41.898Z,98162.67
2018-06-09T17:07:10.305Z,98157.65
2018-06-09T17:09:38.838Z,98160.03
2018-06-09T17:12:07.286Z,98162.56
2018-06-09T17:14:35.735Z,98163.14
2018-06-09T17:17:04.125Z,98173.25
2018-06-09T17:19:34.223Z,98179.36
2018-06-09T17:22:02.839Z,98186.52
2018-06-09T17:24:31.358Z,98189.25
2018-06-09T17:26:59.840Z,98193.25
2018-06-09T17:29:28.270Z,98204.78
2018-06-09T17:31:56.645Z,98203.41
2018-06-09T17:34:25.054Z,98202.23
2018-06-09T17:36:53.515Z,98193.95
2018-06-09T17:39:21.966Z,98187.17
2018-06-09T17:41:50.335Z,98176.08
2018-06-09T17:44:18.924Z,98181.11
2018-06-09T17:46:47.398Z,98180.48
2018-06-09T17:49:15.819Z,98191.34
2018-06-09T17:51:44.252Z,98197.92
2018-06-09T17:54:12.677Z,98197.32
2018-06-09T17:56:44.741Z,98199.06
2018-06-09T17:59:13.246Z,98192.91
2018-06-09T18:01:41.697Z,98191.55
